NATURA VA

 INFORMACIÓN METAR y TAF
METAR FOR GEML
ADDS - METARS form results

(0123 UTC 20 May 2019)
Data provider http://aviationweather.gov/metar/data/
 
METAR text: GEML 200100Z AUTO 21002KT CAVOK 19/11 Q1013
Conditions at: GEML (MELILLA , ES) observed 0100 UTC 20 May 2019
Temperature: 19.0°C (66°F)
Dewpoint: 11.0°C (52°F) [RH = 60%]
Pressure (altimeter): 29.91 inches Hg (1013.0 mb)
Winds: from the SSW (210 degrees) at 2 MPH (2 knots; 1.0 m/s)
Visibility: 6 or more miles (10+ km)
Ceiling: ceiling and visibility are OK
Clouds: unknown
Weather: no significant weather observed at this time

METAR text: GEML 200030Z AUTO 22003KT CAVOK 19/11 Q1013
Conditions at: GEML (MELILLA , ES) observed 0030 UTC 20 May 2019
Temperature: 19.0°C (66°F)
Dewpoint: 11.0°C (52°F) [RH = 60%]
Pressure (altimeter): 29.91 inches Hg (1013.0 mb)
Winds: from the SW (220 degrees) at 3 MPH (3 knots; 1.5 m/s)
Visibility: 6 or more miles (10+ km)
Ceiling: ceiling and visibility are OK
Clouds: unknown
Weather: no significant weather observed at this time

Forecast for: GEML (MELILLA , ES)
Text: TAF GEML 192000Z 1921/2021 27013KT CAVOK TX24/2013Z TN17/2005Z
Forecast period: 2100 UTC 19 May 2019 to 2100 UTC 20 May 2019
Forecast type: FROM: standard forecast or significant change
Winds: from the W (270 degrees) at 15 MPH (13 knots; 6.7 m/s)
Visibility: 6 or more miles 10+ km)
Ceiling: unknown
Clouds: missing
Weather: no significant weather forecast for this period
Text: PROB40
Forecast period: 2100 to 2300 UTC 19 May 2019
Forecast type: TEMPORARY: The following changes expected for less than half the time period
Winds: from the W (270 degrees) at 21 MPH (18 knots; 9.3 m/s)
gusting to 32 MPH (28 knots; 14.4 m/s)
Visibility: missing
Ceiling: unknown
Clouds: missing
Weather: no significant weather forecast for this period

 MAPA DE AEROPUERTO

 INFORMACIÓN DE PISTA
Pista 15 Longitud 4685 ft Ancho 148 ft
Elevación 156 ft Umbral desplazado 755 ft Rumbo de pista 146
Pista 33 Longitud 4685 ft Ancho 148 ft
Elevación 133 ft Umbral desplazado 0 ft Rumbo de pista 326

 FRECUANCIAS DEL AEROPUERTO
Tipo GND Nombre GND Frecuencia 121.7 MHZ
Tipo TWR Nombre TWR Frecuencia 118.5 MHZ

 RADIO AYUDAS DEL AEROPUERTO
Tipo VOR-DME Nombre Melilla Frecuencia 114250 KHZ
Tipo DME Nombre Melilla Frecuencia 117400 KHZ



Powered by Virtual Airlines Manager [v2.6.2]